sensor_id;sensor_type;location;lat;lon;timestamp;temperature;humidity
20442;DHT22;10380;52.102;20.614;2023-03-23T00:00:00;10.50;99.90
20442;DHT22;10380;52.102;20.614;2023-03-23T00:02:31;10.50;99.90
20442;DHT22;10380;52.102;20.614;2023-03-23T00:05:08;10.50;99.90
20442;DHT22;10380;52.102;20.614;2023-03-23T00:07:35;10.50;99.90
20442;DHT22;10380;52.102;20.614;2023-03-23T00:10:01;10.60;99.90
20442;DHT22;10380;52.102;20.614;2023-03-23T00:12:30;10.60;99.90
20442;DHT22;10380;52.102;20.614;2023-03-23T00:15:01;10.60;99.90
20442;DHT22;10380;52.102;20.614;2023-03-23T00:17:29;10.60;99.90
20442;DHT22;10380;52.102;20.614;2023-03-23T00:19:58;10.60;99.90
20442;DHT22;10380;52.102;20.614;2023-03-23T00:22:24;10.60;99.90
20442;DHT22;10380;52.102;20.614;2023-03-23T00:24:57;10.70;99.90
20442;DHT22;10380;52.102;20.614;2023-03-23T00:27:25;10.70;99.90
20442;DHT22;10380;52.102;20.614;2023-03-23T00:29:51;10.70;99.90
20442;DHT22;10380;52.102;20.614;2023-03-23T00:32:23;10.80;99.90
20442;DHT22;10380;52.102;20.614;2023-03-23T00:34:56;10.80;99.90
20442;DHT22;10380;52.102;20.614;2023-03-23T00:37:28;10.90;99.90
20442;DHT22;10380;52.102;20.614;2023-03-23T00:39:54;10.90;99.90
20442;DHT22;10380;52.102;20.614;2023-03-23T00:42:25;10.90;99.90
20442;DHT22;10380;52.102;20.614;2023-03-23T00:44:53;11.00;99.90
20442;DHT22;10380;52.102;20.614;2023-03-23T00:47:26;11.00;99.90
20442;DHT22;10380;52.102;20.614;2023-03-23T00:49:59;11.10;99.90
20442;DHT22;10380;52.102;20.614;2023-03-23T00:52:24;11.10;99.90
20442;DHT22;10380;52.102;20.614;2023-03-23T00:54:51;11.20;99.90
20442;DHT22;10380;52.102;20.614;2023-03-23T00:57:24;11.30;99.90
20442;DHT22;10380;52.102;20.614;2023-03-23T00:59:53;11.30;99.90
20442;DHT22;10380;52.102;20.614;2023-03-23T01:02:20;11.40;99.90
20442;DHT22;10380;52.102;20.614;2023-03-23T01:04:50;11.40;99.90
20442;DHT22;10380;52.102;20.614;2023-03-23T01:07:19;11.50;99.90
20442;DHT22;10380;52.102;20.614;2023-03-23T01:09:49;11.50;99.90
20442;DHT22;10380;52.102;20.614;2023-03-23T01:12:21;11.60;99.90
20442;DHT22;10380;52.102;20.614;2023-03-23T01:14:56;11.60;99.90
20442;DHT22;10380;52.102;20.614;2023-03-23T01:17:22;11.60;99.90
20442;DHT22;10380;52.102;20.614;2023-03-23T01:19:48;11.70;99.90
20442;DHT22;10380;52.102;20.614;2023-03-23T01:22:17;11.70;99.90
20442;DHT22;10380;52.102;20.614;2023-03-23T01:24:43;11.80;99.90
20442;DHT22;10380;52.102;20.614;2023-03-23T01:27:11;11.80;99.90
20442;DHT22;10380;52.102;20.614;2023-03-23T01:29:36;11.80;99.90
20442;DHT22;10380;52.102;20.614;2023-03-23T01:32:03;11.80;99.90
20442;DHT22;10380;52.102;20.614;2023-03-23T01:34:39;11.90;99.90
20442;DHT22;10380;52.102;20.614;2023-03-23T01:37:06;11.90;99.90
20442;DHT22;10380;52.102;20.614;2023-03-23T01:39:40;11.90;99.90
20442;DHT22;10380;52.102;20.614;2023-03-23T01:42:08;11.90;99.90
20442;DHT22;10380;52.102;20.614;2023-03-23T01:47:03;11.90;99.90
20442;DHT22;10380;52.102;20.614;2023-03-23T01:49:35;11.90;99.90
20442;DHT22;10380;52.102;20.614;2023-03-23T01:52:05;11.80;99.90
20442;DHT22;10380;52.102;20.614;2023-03-23T01:54:32;11.80;99.90
20442;DHT22;10380;52.102;20.614;2023-03-23T01:57:07;11.80;99.90
20442;DHT22;10380;52.102;20.614;2023-03-23T01:59:38;11.80;99.90
20442;DHT22;10380;52.102;20.614;2023-03-23T02:02:08;11.80;99.90
20442;DHT22;10380;52.102;20.614;2023-03-23T02:04:39;11.70;99.90
20442;DHT22;10380;52.102;20.614;2023-03-23T02:07:21;11.70;99.90
20442;DHT22;10380;52.102;20.614;2023-03-23T02:09:56;11.70;99.90
20442;DHT22;10380;52.102;20.614;2023-03-23T02:12:22;11.60;99.90
20442;DHT22;10380;52.102;20.614;2023-03-23T02:14:48;11.60;99.90
20442;DHT22;10380;52.102;20.614;2023-03-23T02:20:19;11.60;99.90
20442;DHT22;10380;52.102;20.614;2023-03-23T02:34:31;11.50;99.90
20442;DHT22;10380;52.102;20.614;2023-03-23T02:37:06;11.50;99.90
20442;DHT22;10380;52.102;20.614;2023-03-23T02:39:47;11.50;99.90
20442;DHT22;10380;52.102;20.614;2023-03-23T02:42:18;11.50;99.90
20442;DHT22;10380;52.102;20.614;2023-03-23T02:44:49;11.50;99.90
20442;DHT22;10380;52.102;20.614;2023-03-23T02:47:25;11.40;99.90
20442;DHT22;10380;52.102;20.614;2023-03-23T02:49:57;11.40;99.90
20442;DHT22;10380;52.102;20.614;2023-03-23T02:52:35;11.40;99.90
20442;DHT22;10380;52.102;20.614;2023-03-23T02:55:05;11.40;99.90
20442;DHT22;10380;52.102;20.614;2023-03-23T02:57:31;11.40;99.90
20442;DHT22;10380;52.102;20.614;2023-03-23T02:59:59;11.40;99.90
20442;DHT22;10380;52.102;20.614;2023-03-23T03:02:30;11.30;99.90
20442;DHT22;10380;52.102;20.614;2023-03-23T03:05:06;11.40;99.90
20442;DHT22;10380;52.102;20.614;2023-03-23T03:07:54;11.30;99.90
20442;DHT22;10380;52.102;20.614;2023-03-23T03:10:35;11.30;99.90
20442;DHT22;10380;52.102;20.614;2023-03-23T03:16:45;11.20;99.90
20442;DHT22;10380;52.102;20.614;2023-03-23T03:21:26;11.10;99.90
20442;DHT22;10380;52.102;20.614;2023-03-23T03:23:58;11.00;99.90
20442;DHT22;10380;52.102;20.614;2023-03-23T03:26:29;11.00;99.90
20442;DHT22;10380;52.102;20.614;2023-03-23T03:28:57;10.90;99.90
20442;DHT22;10380;52.102;20.614;2023-03-23T03:31:30;10.80;99.90
20442;DHT22;10380;52.102;20.614;2023-03-23T03:33:58;10.80;99.90
20442;DHT22;10380;52.102;20.614;2023-03-23T03:36:29;10.70;99.90
20442;DHT22;10380;52.102;20.614;2023-03-23T03:39:05;10.60;99.90
20442;DHT22;10380;52.102;20.614;2023-03-23T03:41:40;10.60;99.90
20442;DHT22;10380;52.102;20.614;2023-03-23T03:44:09;10.60;99.90
20442;DHT22;10380;52.102;20.614;2023-03-23T03:46:36;10.50;99.90
20442;DHT22;10380;52.102;20.614;2023-03-23T03:49:06;10.50;99.90
20442;DHT22;10380;52.102;20.614;2023-03-23T03:51:35;10.40;99.90
20442;DHT22;10380;52.102;20.614;2023-03-23T03:54:01;10.50;99.90
20442;DHT22;10380;52.102;20.614;2023-03-23T03:56:27;10.40;99.90
20442;DHT22;10380;52.102;20.614;2023-03-23T03:58:53;10.40;99.90
20442;DHT22;10380;52.102;20.614;2023-03-23T04:01:22;10.40;99.90
20442;DHT22;10380;52.102;20.614;2023-03-23T04:03:49;10.40;99.90
20442;DHT22;10380;52.102;20.614;2023-03-23T04:06:15;10.40;99.90
20442;DHT22;10380;52.102;20.614;2023-03-23T04:08:41;10.30;99.90
20442;DHT22;10380;52.102;20.614;2023-03-23T04:11:09;10.30;99.90
20442;DHT22;10380;52.102;20.614;2023-03-23T04:13:40;10.40;99.90
20442;DHT22;10380;52.102;20.614;2023-03-23T04:19:17;10.30;99.90
20442;DHT22;10380;52.102;20.614;2023-03-23T04:21:48;10.30;99.90
20442;DHT22;10380;52.102;20.614;2023-03-23T04:24:15;10.30;99.90
20442;DHT22;10380;52.102;20.614;2023-03-23T04:26:42;10.20;99.90
20442;DHT22;10380;52.102;20.614;2023-03-23T04:29:11;10.20;99.90
20442;DHT22;10380;52.102;20.614;2023-03-23T04:31:38;10.20;99.90
20442;DHT22;10380;52.102;20.614;2023-03-23T04:34:05;10.10;99.90
20442;DHT22;10380;52.102;20.614;2023-03-23T04:36:31;10.10;99.90
20442;DHT22;10380;52.102;20.614;2023-03-23T04:39:02;10.10;99.90
20442;DHT22;10380;52.102;20.614;2023-03-23T04:41:32;10.10;99.90
20442;DHT22;10380;52.102;20.614;2023-03-23T04:43:58;10.10;99.90
20442;DHT22;10380;52.102;20.614;2023-03-23T04:46:36;10.10;99.90
20442;DHT22;10380;52.102;20.614;2023-03-23T04:49:05;10.00;99.90
20442;DHT22;10380;52.102;20.614;2023-03-23T04:51:31;10.10;99.90
20442;DHT22;10380;52.102;20.614;2023-03-23T04:53:57;10.10;99.90
20442;DHT22;10380;52.102;20.614;2023-03-23T04:56:25;10.10;99.90
20442;DHT22;10380;52.102;20.614;2023-03-23T04:58:51;10.20;99.90
20442;DHT22;10380;52.102;20.614;2023-03-23T05:01:17;10.20;99.90
20442;DHT22;10380;52.102;20.614;2023-03-23T05:03:46;10.20;99.90
20442;DHT22;10380;52.102;20.614;2023-03-23T05:06:13;10.40;99.90
20442;DHT22;10380;52.102;20.614;2023-03-23T05:08:39;10.40;99.90
20442;DHT22;10380;52.102;20.614;2023-03-23T05:11:06;10.40;99.90
20442;DHT22;10380;52.102;20.614;2023-03-23T05:13:32;10.40;99.90
20442;DHT22;10380;52.102;20.614;2023-03-23T05:16:04;10.50;99.90
20442;DHT22;10380;52.102;20.614;2023-03-23T05:18:32;10.60;99.90
20442;DHT22;10380;52.102;20.614;2023-03-23T05:21:00;10.60;99.90
20442;DHT22;10380;52.102;20.614;2023-03-23T05:23:26;10.60;99.90
20442;DHT22;10380;52.102;20.614;2023-03-23T05:25:54;10.70;99.90
20442;DHT22;10380;52.102;20.614;2023-03-23T05:28:20;10.80;99.90
20442;DHT22;10380;52.102;20.614;2023-03-23T05:30:49;10.80;99.90
20442;DHT22;10380;52.102;20.614;2023-03-23T05:33:18;10.80;99.90
20442;DHT22;10380;52.102;20.614;2023-03-23T05:35:47;10.80;99.90
20442;DHT22;10380;52.102;20.614;2023-03-23T05:38:14;10.90;99.90
20442;DHT22;10380;52.102;20.614;2023-03-23T05:40:42;10.90;99.90
20442;DHT22;10380;52.102;20.614;2023-03-23T05:43:09;10.90;99.90
20442;DHT22;10380;52.102;20.614;2023-03-23T05:45:34;10.90;99.90
20442;DHT22;10380;52.102;20.614;2023-03-23T05:48:01;11.00;99.90
20442;DHT22;10380;52.102;20.614;2023-03-23T05:50:27;11.00;99.90
20442;DHT22;10380;52.102;20.614;2023-03-23T05:52:55;11.10;99.90
20442;DHT22;10380;52.102;20.614;2023-03-23T05:55:21;11.10;99.90
20442;DHT22;10380;52.102;20.614;2023-03-23T05:57:47;11.20;99.90
20442;DHT22;10380;52.102;20.614;2023-03-23T06:00:14;11.30;99.90
20442;DHT22;10380;52.102;20.614;2023-03-23T06:02:43;11.40;99.90
20442;DHT22;10380;52.102;20.614;2023-03-23T06:05:10;11.40;99.90
20442;DHT22;10380;52.102;20.614;2023-03-23T06:07:40;11.50;99.90
20442;DHT22;10380;52.102;20.614;2023-03-23T06:10:12;11.50;99.90
20442;DHT22;10380;52.102;20.614;2023-03-23T06:12:39;11.60;99.90
20442;DHT22;10380;52.102;20.614;2023-03-23T06:15:12;11.70;99.90
20442;DHT22;10380;52.102;20.614;2023-03-23T06:17:38;11.70;99.90
20442;DHT22;10380;52.102;20.614;2023-03-23T06:20:05;11.70;99.90
20442;DHT22;10380;52.102;20.614;2023-03-23T06:22:37;11.90;99.90
20442;DHT22;10380;52.102;20.614;2023-03-23T06:25:06;12.00;99.90
20442;DHT22;10380;52.102;20.614;2023-03-23T06:27:31;12.00;99.90
20442;DHT22;10380;52.102;20.614;2023-03-23T06:29:57;12.00;99.90
20442;DHT22;10380;52.102;20.614;2023-03-23T06:32:25;12.10;99.90
20442;DHT22;10380;52.102;20.614;2023-03-23T06:34:52;12.10;99.90
20442;DHT22;10380;52.102;20.614;2023-03-23T06:37:18;12.20;99.90
20442;DHT22;10380;52.102;20.614;2023-03-23T06:39:43;12.10;99.90
20442;DHT22;10380;52.102;20.614;2023-03-23T06:42:10;12.20;99.90
20442;DHT22;10380;52.102;20.614;2023-03-23T06:44:38;12.30;99.90
20442;DHT22;10380;52.102;20.614;2023-03-23T06:47:04;12.30;99.90
20442;DHT22;10380;52.102;20.614;2023-03-23T06:49:30;12.30;99.90
20442;DHT22;10380;52.102;20.614;2023-03-23T06:51:57;12.40;99.90
20442;DHT22;10380;52.102;20.614;2023-03-23T06:54:23;12.40;99.90
20442;DHT22;10380;52.102;20.614;2023-03-23T06:56:48;12.50;99.90
20442;DHT22;10380;52.102;20.614;2023-03-23T06:59:14;12.50;99.90
20442;DHT22;10380;52.102;20.614;2023-03-23T07:01:40;12.60;99.90
20442;DHT22;10380;52.102;20.614;2023-03-23T07:04:06;12.60;99.90
20442;DHT22;10380;52.102;20.614;2023-03-23T07:06:32;12.70;99.90
20442;DHT22;10380;52.102;20.614;2023-03-23T07:08:58;12.80;99.90
20442;DHT22;10380;52.102;20.614;2023-03-23T07:11:23;12.80;99.90
20442;DHT22;10380;52.102;20.614;2023-03-23T07:13:49;12.90;99.90
20442;DHT22;10380;52.102;20.614;2023-03-23T07:16:16;13.00;99.90
20442;DHT22;10380;52.102;20.614;2023-03-23T07:18:43;13.00;99.90
20442;DHT22;10380;52.102;20.614;2023-03-23T07:21:09;13.10;99.90
20442;DHT22;10380;52.102;20.614;2023-03-23T07:23:35;13.10;99.90
20442;DHT22;10380;52.102;20.614;2023-03-23T07:26:02;13.10;99.90
20442;DHT22;10380;52.102;20.614;2023-03-23T07:28:29;13.10;99.90
20442;DHT22;10380;52.102;20.614;2023-03-23T07:30:55;13.10;99.90
20442;DHT22;10380;52.102;20.614;2023-03-23T07:33:21;13.20;99.90
20442;DHT22;10380;52.102;20.614;2023-03-23T07:35:47;13.20;99.90
20442;DHT22;10380;52.102;20.614;2023-03-23T07:38:13;13.20;99.90
20442;DHT22;10380;52.102;20.614;2023-03-23T07:40:39;13.30;99.90
20442;DHT22;10380;52.102;20.614;2023-03-23T07:43:05;13.40;99.90
20442;DHT22;10380;52.102;20.614;2023-03-23T07:45:32;13.50;99.90
20442;DHT22;10380;52.102;20.614;2023-03-23T07:47:59;13.70;99.90
20442;DHT22;10380;52.102;20.614;2023-03-23T07:50:25;13.80;99.90
20442;DHT22;10380;52.102;20.614;2023-03-23T07:52:56;13.90;99.90
20442;DHT22;10380;52.102;20.614;2023-03-23T07:55:23;13.90;99.90
20442;DHT22;10380;52.102;20.614;2023-03-23T07:57:50;14.00;99.90
20442;DHT22;10380;52.102;20.614;2023-03-23T08:00:19;14.10;99.90
20442;DHT22;10380;52.102;20.614;2023-03-23T08:02:51;14.20;99.90
20442;DHT22;10380;52.102;20.614;2023-03-23T08:05:18;14.30;99.90
20442;DHT22;10380;52.102;20.614;2023-03-23T08:07:44;14.40;99.90
20442;DHT22;10380;52.102;20.614;2023-03-23T08:10:12;14.40;99.90
20442;DHT22;10380;52.102;20.614;2023-03-23T08:12:42;14.60;99.90
20442;DHT22;10380;52.102;20.614;2023-03-23T08:15:10;14.60;99.90
20442;DHT22;10380;52.102;20.614;2023-03-23T08:17:39;14.70;99.90
20442;DHT22;10380;52.102;20.614;2023-03-23T08:20:06;14.80;99.90
20442;DHT22;10380;52.102;20.614;2023-03-23T08:22:39;14.90;99.90
20442;DHT22;10380;52.102;20.614;2023-03-23T08:25:06;15.00;99.90
20442;DHT22;10380;52.102;20.614;2023-03-23T08:27:33;15.10;99.90
20442;DHT22;10380;52.102;20.614;2023-03-23T08:29:59;15.10;99.90
20442;DHT22;10380;52.102;20.614;2023-03-23T08:32:26;15.10;99.90
20442;DHT22;10380;52.102;20.614;2023-03-23T08:34:52;15.20;99.90
20442;DHT22;10380;52.102;20.614;2023-03-23T08:37:18;15.20;99.90
20442;DHT22;10380;52.102;20.614;2023-03-23T08:39:44;15.30;99.90
20442;DHT22;10380;52.102;20.614;2023-03-23T08:42:10;15.30;99.90
20442;DHT22;10380;52.102;20.614;2023-03-23T08:44:37;15.40;99.90
20442;DHT22;10380;52.102;20.614;2023-03-23T08:47:03;15.50;99.90
20442;DHT22;10380;52.102;20.614;2023-03-23T08:49:31;15.60;99.90
20442;DHT22;10380;52.102;20.614;2023-03-23T08:51:59;15.80;99.90
20442;DHT22;10380;52.102;20.614;2023-03-23T08:54:25;15.90;99.90
20442;DHT22;10380;52.102;20.614;2023-03-23T08:56:52;16.00;99.90
20442;DHT22;10380;52.102;20.614;2023-03-23T08:59:18;16.10;99.90
20442;DHT22;10380;52.102;20.614;2023-03-23T09:01:43;16.20;99.90
20442;DHT22;10380;52.102;20.614;2023-03-23T09:04:09;16.20;99.90
20442;DHT22;10380;52.102;20.614;2023-03-23T09:06:36;16.20;99.90
20442;DHT22;10380;52.102;20.614;2023-03-23T09:09:03;16.20;99.90
20442;DHT22;10380;52.102;20.614;2023-03-23T09:11:33;16.30;99.90
20442;DHT22;10380;52.102;20.614;2023-03-23T09:14:00;16.30;99.90
20442;DHT22;10380;52.102;20.614;2023-03-23T09:16:26;16.30;99.90
20442;DHT22;10380;52.102;20.614;2023-03-23T09:18:52;16.50;99.90
20442;DHT22;10380;52.102;20.614;2023-03-23T09:21:17;16.60;99.90
20442;DHT22;10380;52.102;20.614;2023-03-23T09:23:43;16.70;99.90
20442;DHT22;10380;52.102;20.614;2023-03-23T09:26:10;16.80;99.90
20442;DHT22;10380;52.102;20.614;2023-03-23T09:28:36;17.00;99.90
20442;DHT22;10380;52.102;20.614;2023-03-23T09:31:02;17.10;99.90
20442;DHT22;10380;52.102;20.614;2023-03-23T09:33:30;17.30;99.90
20442;DHT22;10380;52.102;20.614;2023-03-23T09:35:59;17.30;99.90
20442;DHT22;10380;52.102;20.614;2023-03-23T09:38:25;17.40;99.90
20442;DHT22;10380;52.102;20.614;2023-03-23T09:43:56;17.40;99.90
20442;DHT22;10380;52.102;20.614;2023-03-23T09:49:10;17.30;99.90
20442;DHT22;10380;52.102;20.614;2023-03-23T09:54:40;17.20;99.90
20442;DHT22;10380;52.102;20.614;2023-03-23T09:57:26;17.20;99.90
20442;DHT22;10380;52.102;20.614;2023-03-23T10:00:02;17.20;99.90
20442;DHT22;10380;52.102;20.614;2023-03-23T10:02:41;17.20;99.90
20442;DHT22;10380;52.102;20.614;2023-03-23T10:07:56;17.20;99.90
20442;DHT22;10380;52.102;20.614;2023-03-23T10:10:26;17.30;99.90
20442;DHT22;10380;52.102;20.614;2023-03-23T10:13:01;17.40;99.90
20442;DHT22;10380;52.102;20.614;2023-03-23T10:15:39;17.50;99.90
20442;DHT22;10380;52.102;20.614;2023-03-23T10:18:26;17.60;99.90
20442;DHT22;10380;52.102;20.614;2023-03-23T10:21:00;17.60;99.90
20442;DHT22;10380;52.102;20.614;2023-03-23T10:23:49;17.80;99.90
20442;DHT22;10380;52.102;20.614;2023-03-23T10:31:41;18.00;99.90
20442;DHT22;10380;52.102;20.614;2023-03-23T10:34:12;18.00;99.90
20442;DHT22;10380;52.102;20.614;2023-03-23T10:39:59;18.20;99.90
20442;DHT22;10380;52.102;20.614;2023-03-23T10:42:34;18.30;99.90
20442;DHT22;10380;52.102;20.614;2023-03-23T10:47:41;18.60;99.90
20442;DHT22;10380;52.102;20.614;2023-03-23T10:50:15;18.80;99.90
20442;DHT22;10380;52.102;20.614;2023-03-23T10:52:43;19.10;99.90
20442;DHT22;10380;52.102;20.614;2023-03-23T10:55:15;19.30;99.90
20442;DHT22;10380;52.102;20.614;2023-03-23T10:57:44;19.40;99.90
20442;DHT22;10380;52.102;20.614;2023-03-23T11:00:18;19.40;99.90
20442;DHT22;10380;52.102;20.614;2023-03-23T11:02:46;19.50;99.90
20442;DHT22;10380;52.102;20.614;2023-03-23T11:05:19;19.50;99.90
20442;DHT22;10380;52.102;20.614;2023-03-23T11:07:54;19.60;99.90
20442;DHT22;10380;52.102;20.614;2023-03-23T11:10:26;19.60;99.90
20442;DHT22;10380;52.102;20.614;2023-03-23T11:12:57;19.70;99.90
20442;DHT22;10380;52.102;20.614;2023-03-23T11:15:32;19.70;99.90
20442;DHT22;10380;52.102;20.614;2023-03-23T11:18:04;19.60;99.90
20442;DHT22;10380;52.102;20.614;2023-03-23T11:20:35;19.50;99.90
20442;DHT22;10380;52.102;20.614;2023-03-23T11:23:09;19.50;99.90
20442;DHT22;10380;52.102;20.614;2023-03-23T11:28:36;19.60;99.90
20442;DHT22;10380;52.102;20.614;2023-03-23T11:31:04;19.80;99.90
20442;DHT22;10380;52.102;20.614;2023-03-23T11:33:51;19.80;99.90
20442;DHT22;10380;52.102;20.614;2023-03-23T11:36:18;19.90;99.90
20442;DHT22;10380;52.102;20.614;2023-03-23T11:38:45;19.90;99.90
20442;DHT22;10380;52.102;20.614;2023-03-23T11:41:12;20.00;99.90
20442;DHT22;10380;52.102;20.614;2023-03-23T11:43:40;20.10;99.90
20442;DHT22;10380;52.102;20.614;2023-03-23T11:46:18;20.20;99.90
20442;DHT22;10380;52.102;20.614;2023-03-23T11:48:58;20.40;99.90
20442;DHT22;10380;52.102;20.614;2023-03-23T11:54:36;21.00;99.90
20442;DHT22;10380;52.102;20.614;2023-03-23T11:57:10;21.50;99.90
20442;DHT22;10380;52.102;20.614;2023-03-23T11:59:37;21.90;99.90
20442;DHT22;10380;52.102;20.614;2023-03-23T12:05:10;22.60;99.90
20442;DHT22;10380;52.102;20.614;2023-03-23T12:07:55;23.00;99.90
20442;DHT22;10380;52.102;20.614;2023-03-23T12:11:11;23.50;99.90
20442;DHT22;10380;52.102;20.614;2023-03-23T12:18:45;24.10;99.90
20442;DHT22;10380;52.102;20.614;2023-03-23T12:21:30;23.70;99.90
20442;DHT22;10380;52.102;20.614;2023-03-23T12:26:45;23.10;99.90
20442;DHT22;10380;52.102;20.614;2023-03-23T12:35:07;22.90;99.90
20442;DHT22;10380;52.102;20.614;2023-03-23T12:48:48;22.10;99.90
20442;DHT22;10380;52.102;20.614;2023-03-23T12:51:26;22.00;99.90
20442;DHT22;10380;52.102;20.614;2023-03-23T12:54:11;21.90;99.90
20442;DHT22;10380;52.102;20.614;2023-03-23T12:59:41;21.70;99.90
20442;DHT22;10380;52.102;20.614;2023-03-23T13:04:51;21.30;99.90
20442;DHT22;10380;52.102;20.614;2023-03-23T13:07:22;21.30;99.90
20442;DHT22;10380;52.102;20.614;2023-03-23T13:09:58;21.10;99.90
20442;DHT22;10380;52.102;20.614;2023-03-23T13:12:27;20.90;99.90
20442;DHT22;10380;52.102;20.614;2023-03-23T13:17:54;20.30;99.90
20442;DHT22;10380;52.102;20.614;2023-03-23T13:20:32;20.20;99.90
20442;DHT22;10380;52.102;20.614;2023-03-23T13:26:26;20.00;99.90
20442;DHT22;10380;52.102;20.614;2023-03-23T13:28:33;20.00;99.90
20442;DHT22;10380;52.102;20.614;2023-03-23T13:31:12;19.90;99.90
20442;DHT22;10380;52.102;20.614;2023-03-23T13:33:39;19.90;99.90
20442;DHT22;10380;52.102;20.614;2023-03-23T13:36:09;19.80;99.90
20442;DHT22;10380;52.102;20.614;2023-03-23T13:38:36;19.70;99.90
20442;DHT22;10380;52.102;20.614;2023-03-23T13:41:11;19.70;99.90
20442;DHT22;10380;52.102;20.614;2023-03-23T13:43:38;19.70;99.90
20442;DHT22;10380;52.102;20.614;2023-03-23T13:48:48;19.70;99.90
20442;DHT22;10380;52.102;20.614;2023-03-23T13:53:51;19.60;99.90
20442;DHT22;10380;52.102;20.614;2023-03-23T13:56:36;19.50;99.90
20442;DHT22;10380;52.102;20.614;2023-03-23T14:01:55;19.20;99.90
20442;DHT22;10380;52.102;20.614;2023-03-23T14:04:23;19.20;99.90
20442;DHT22;10380;52.102;20.614;2023-03-23T14:06:57;19.00;99.90
20442;DHT22;10380;52.102;20.614;2023-03-23T14:09:43;18.90;99.90
20442;DHT22;10380;52.102;20.614;2023-03-23T14:12:21;18.70;99.90
20442;DHT22;10380;52.102;20.614;2023-03-23T14:14:50;18.60;99.90
20442;DHT22;10380;52.102;20.614;2023-03-23T14:17:17;18.60;99.90
20442;DHT22;10380;52.102;20.614;2023-03-23T14:19:50;18.50;99.90
20442;DHT22;10380;52.102;20.614;2023-03-23T14:22:19;18.30;99.90
20442;DHT22;10380;52.102;20.614;2023-03-23T14:24:49;18.30;99.90
20442;DHT22;10380;52.102;20.614;2023-03-23T14:27:19;18.10;99.90
20442;DHT22;10380;52.102;20.614;2023-03-23T14:29:46;18.10;99.90
20442;DHT22;10380;52.102;20.614;2023-03-23T14:32:23;18.00;99.90
20442;DHT22;10380;52.102;20.614;2023-03-23T14:34:53;17.90;99.90
20442;DHT22;10380;52.102;20.614;2023-03-23T14:37:20;17.80;99.90
20442;DHT22;10380;52.102;20.614;2023-03-23T14:39:53;17.80;99.90
20442;DHT22;10380;52.102;20.614;2023-03-23T14:42:30;17.70;99.90
20442;DHT22;10380;52.102;20.614;2023-03-23T14:44:57;17.70;99.90
20442;DHT22;10380;52.102;20.614;2023-03-23T14:47:26;17.70;99.90
20442;DHT22;10380;52.102;20.614;2023-03-23T14:49:55;17.60;99.90
20442;DHT22;10380;52.102;20.614;2023-03-23T14:52:23;17.60;99.90
20442;DHT22;10380;52.102;20.614;2023-03-23T14:54:50;17.60;99.90
20442;DHT22;10380;52.102;20.614;2023-03-23T14:59:50;17.60;99.90
20442;DHT22;10380;52.102;20.614;2023-03-23T15:04:46;17.50;99.90
20442;DHT22;10380;52.102;20.614;2023-03-23T15:07:14;17.50;99.90
20442;DHT22;10380;52.102;20.614;2023-03-23T15:09:44;17.50;99.90
20442;DHT22;10380;52.102;20.614;2023-03-23T15:12:23;17.40;99.90
20442;DHT22;10380;52.102;20.614;2023-03-23T15:14:55;17.40;99.90
20442;DHT22;10380;52.102;20.614;2023-03-23T15:17:28;17.40;99.90
20442;DHT22;10380;52.102;20.614;2023-03-23T15:19:56;17.40;99.90
20442;DHT22;10380;52.102;20.614;2023-03-23T15:25:00;17.40;99.90
20442;DHT22;10380;52.102;20.614;2023-03-23T15:27:41;17.30;99.90
20442;DHT22;10380;52.102;20.614;2023-03-23T15:32:51;17.30;99.90
20442;DHT22;10380;52.102;20.614;2023-03-23T15:35:22;17.20;99.90
20442;DHT22;10380;52.102;20.614;2023-03-23T15:37:58;17.10;99.90
20442;DHT22;10380;52.102;20.614;2023-03-23T15:40:26;17.10;99.90
20442;DHT22;10380;52.102;20.614;2023-03-23T15:43:26;17.10;99.90
20442;DHT22;10380;52.102;20.614;2023-03-23T15:45:59;17.10;99.90
20442;DHT22;10380;52.102;20.614;2023-03-23T15:48:30;17.00;99.90
20442;DHT22;10380;52.102;20.614;2023-03-23T15:50:57;17.00;99.90
20442;DHT22;10380;52.102;20.614;2023-03-23T15:53:30;16.90;99.90
20442;DHT22;10380;52.102;20.614;2023-03-23T15:55:59;16.90;99.90
20442;DHT22;10380;52.102;20.614;2023-03-23T15:58:26;16.80;99.90
20442;DHT22;10380;52.102;20.614;2023-03-23T16:00:54;16.70;99.90
20442;DHT22;10380;52.102;20.614;2023-03-23T16:03:26;16.70;99.90
20442;DHT22;10380;52.102;20.614;2023-03-23T16:05:55;16.70;99.90
20442;DHT22;10380;52.102;20.614;2023-03-23T16:08:23;16.70;99.90
20442;DHT22;10380;52.102;20.614;2023-03-23T16:10:51;16.60;99.90
20442;DHT22;10380;52.102;20.614;2023-03-23T16:13:18;16.50;99.90
20442;DHT22;10380;52.102;20.614;2023-03-23T16:15:46;16.50;99.90
20442;DHT22;10380;52.102;20.614;2023-03-23T16:18:20;16.40;99.90
20442;DHT22;10380;52.102;20.614;2023-03-23T16:20:48;16.30;99.90
20442;DHT22;10380;52.102;20.614;2023-03-23T16:23:16;16.10;99.90
20442;DHT22;10380;52.102;20.614;2023-03-23T16:25:45;16.00;99.90
20442;DHT22;10380;52.102;20.614;2023-03-23T16:28:13;16.00;99.90
20442;DHT22;10380;52.102;20.614;2023-03-23T16:30:41;15.90;99.90
20442;DHT22;10380;52.102;20.614;2023-03-23T16:33:09;15.80;99.90
20442;DHT22;10380;52.102;20.614;2023-03-23T16:35:36;15.80;99.90
20442;DHT22;10380;52.102;20.614;2023-03-23T16:38:04;15.80;99.90
20442;DHT22;10380;52.102;20.614;2023-03-23T16:40:35;15.80;99.90
20442;DHT22;10380;52.102;20.614;2023-03-23T16:43:02;15.70;99.90
20442;DHT22;10380;52.102;20.614;2023-03-23T16:45:35;15.70;99.90
20442;DHT22;10380;52.102;20.614;2023-03-23T16:48:02;15.70;99.90
20442;DHT22;10380;52.102;20.614;2023-03-23T16:50:31;15.70;99.90
20442;DHT22;10380;52.102;20.614;2023-03-23T16:52:58;15.70;99.90
20442;DHT22;10380;52.102;20.614;2023-03-23T16:55:25;15.70;99.90
20442;DHT22;10380;52.102;20.614;2023-03-23T16:57:53;15.60;99.90
20442;DHT22;10380;52.102;20.614;2023-03-23T17:00:42;15.60;99.90
20442;DHT22;10380;52.102;20.614;2023-03-23T17:03:09;15.50;99.90
20442;DHT22;10380;52.102;20.614;2023-03-23T17:05:37;15.50;99.90
20442;DHT22;10380;52.102;20.614;2023-03-23T17:08:04;15.50;99.90
20442;DHT22;10380;52.102;20.614;2023-03-23T17:10:32;15.40;99.90
20442;DHT22;10380;52.102;20.614;2023-03-23T17:12:59;15.30;99.90
20442;DHT22;10380;52.102;20.614;2023-03-23T17:15:26;15.30;99.90
20442;DHT22;10380;52.102;20.614;2023-03-23T17:17:54;15.30;99.90
20442;DHT22;10380;52.102;20.614;2023-03-23T17:20:21;15.30;99.90
20442;DHT22;10380;52.102;20.614;2023-03-23T17:22:48;15.20;99.90